sensor_id;sensor_type;location;lat;lon;timestamp;temperature;humidity
5258;DHT22;2651;51.594;9.928;2023-01-09T00:00:39;9.00;1.00
5258;DHT22;2651;51.594;9.928;2023-01-09T00:01:44;9.00;1.00
5258;DHT22;2651;51.594;9.928;2023-01-09T00:02:46;9.00;1.00
5258;DHT22;2651;51.594;9.928;2023-01-09T00:03:48;9.10;1.00
5258;DHT22;2651;51.594;9.928;2023-01-09T00:04:50;9.10;1.00
5258;DHT22;2651;51.594;9.928;2023-01-09T00:05:51;9.10;1.00
5258;DHT22;2651;51.594;9.928;2023-01-09T00:06:53;9.10;1.00
5258;DHT22;2651;51.594;9.928;2023-01-09T00:07:55;9.10;1.00
5258;DHT22;2651;51.594;9.928;2023-01-09T00:08:56;9.10;1.00
5258;DHT22;2651;51.594;9.928;2023-01-09T00:09:58;9.10;1.00
5258;DHT22;2651;51.594;9.928;2023-01-09T00:11:00;9.10;1.00
5258;DHT22;2651;51.594;9.928;2023-01-09T00:12:02;9.10;1.00
5258;DHT22;2651;51.594;9.928;2023-01-09T00:13:03;9.00;1.00
5258;DHT22;2651;51.594;9.928;2023-01-09T00:14:05;9.00;1.00
5258;DHT22;2651;51.594;9.928;2023-01-09T00:15:07;9.00;1.00
5258;DHT22;2651;51.594;9.928;2023-01-09T00:16:09;9.00;1.00
5258;DHT22;2651;51.594;9.928;2023-01-09T00:17:11;9.00;1.00
5258;DHT22;2651;51.594;9.928;2023-01-09T00:18:13;9.00;1.00
5258;DHT22;2651;51.594;9.928;2023-01-09T00:19:14;9.00;1.00
5258;DHT22;2651;51.594;9.928;2023-01-09T00:20:16;9.10;1.00
5258;DHT22;2651;51.594;9.928;2023-01-09T00:21:19;9.00;1.00
5258;DHT22;2651;51.594;9.928;2023-01-09T00:22:20;9.10;56.60
5258;DHT22;2651;51.594;9.928;2023-01-09T00:23:22;9.10;91.90
5258;DHT22;2651;51.594;9.928;2023-01-09T00:24:24;9.10;94.30
5258;DHT22;2651;51.594;9.928;2023-01-09T00:25:25;9.10;95.50
5258;DHT22;2651;51.594;9.928;2023-01-09T00:26:27;9.10;67.10
5258;DHT22;2651;51.594;9.928;2023-01-09T00:27:33;9.10;93.50
5258;DHT22;2651;51.594;9.928;2023-01-09T00:28:35;9.10;99.80
5258;DHT22;2651;51.594;9.928;2023-01-09T00:29:37;9.10;99.90
5258;DHT22;2651;51.594;9.928;2023-01-09T00:30:38;9.10;57.30
5258;DHT22;2651;51.594;9.928;2023-01-09T00:31:40;9.10;90.20
5258;DHT22;2651;51.594;9.928;2023-01-09T00:32:42;9.10;3.30
5258;DHT22;2651;51.594;9.928;2023-01-09T00:33:51;9.10;1.00
5258;DHT22;2651;51.594;9.928;2023-01-09T00:34:54;9.10;19.20
5258;DHT22;2651;51.594;9.928;2023-01-09T00:35:56;9.10;93.90
5258;DHT22;2651;51.594;9.928;2023-01-09T00:36:57;9.00;96.90
5258;DHT22;2651;51.594;9.928;2023-01-09T00:37:59;9.00;99.90
5258;DHT22;2651;51.594;9.928;2023-01-09T00:39:04;9.00;99.90
5258;DHT22;2651;51.594;9.928;2023-01-09T00:40:06;9.00;99.90
5258;DHT22;2651;51.594;9.928;2023-01-09T00:41:13;9.00;99.90
5258;DHT22;2651;51.594;9.928;2023-01-09T00:42:19;9.00;99.90
5258;DHT22;2651;51.594;9.928;2023-01-09T00:43:25;9.10;99.90
5258;DHT22;2651;51.594;9.928;2023-01-09T00:44:36;9.00;99.90
5258;DHT22;2651;51.594;9.928;2023-01-09T00:45:42;9.10;99.90
5258;DHT22;2651;51.594;9.928;2023-01-09T00:46:47;9.10;99.90
5258;DHT22;2651;51.594;9.928;2023-01-09T00:47:51;9.10;99.90
5258;DHT22;2651;51.594;9.928;2023-01-09T00:48:53;9.10;99.90
5258;DHT22;2651;51.594;9.928;2023-01-09T00:49:58;9.10;99.90
5258;DHT22;2651;51.594;9.928;2023-01-09T00:51:00;9.00;99.90
5258;DHT22;2651;51.594;9.928;2023-01-09T00:52:02;9.10;99.90
5258;DHT22;2651;51.594;9.928;2023-01-09T00:53:10;9.00;99.90
5258;DHT22;2651;51.594;9.928;2023-01-09T00:54:14;9.00;99.90
5258;DHT22;2651;51.594;9.928;2023-01-09T00:55:17;9.00;99.90
5258;DHT22;2651;51.594;9.928;2023-01-09T00:56:19;9.00;1.00
5258;DHT22;2651;51.594;9.928;2023-01-09T00:57:21;8.90;1.00
5258;DHT22;2651;51.594;9.928;2023-01-09T00:58:23;8.90;1.00
5258;DHT22;2651;51.594;9.928;2023-01-09T00:59:26;8.90;1.00
5258;DHT22;2651;51.594;9.928;2023-01-09T01:00:29;8.90;1.00
5258;DHT22;2651;51.594;9.928;2023-01-09T01:01:31;8.90;1.00
5258;DHT22;2651;51.594;9.928;2023-01-09T01:02:33;8.80;1.00
5258;DHT22;2651;51.594;9.928;2023-01-09T01:03:34;8.80;1.00
5258;DHT22;2651;51.594;9.928;2023-01-09T01:04:36;8.80;1.00
5258;DHT22;2651;51.594;9.928;2023-01-09T01:05:56;8.80;1.00
5258;DHT22;2651;51.594;9.928;2023-01-09T01:07:17;8.70;1.00
5258;DHT22;2651;51.594;9.928;2023-01-09T01:08:37;8.70;1.00
5258;DHT22;2651;51.594;9.928;2023-01-09T01:09:39;8.70;1.00
5258;DHT22;2651;51.594;9.928;2023-01-09T01:10:41;8.70;1.00
5258;DHT22;2651;51.594;9.928;2023-01-09T01:11:43;8.70;1.00
5258;DHT22;2651;51.594;9.928;2023-01-09T01:12:46;8.70;1.00
5258;DHT22;2651;51.594;9.928;2023-01-09T01:13:48;8.60;1.00
5258;DHT22;2651;51.594;9.928;2023-01-09T01:14:51;8.70;1.00
5258;DHT22;2651;51.594;9.928;2023-01-09T01:15:53;8.70;1.00
5258;DHT22;2651;51.594;9.928;2023-01-09T01:16:55;8.70;1.00
5258;DHT22;2651;51.594;9.928;2023-01-09T01:17:56;8.60;1.00
5258;DHT22;2651;51.594;9.928;2023-01-09T01:18:58;8.70;1.00
5258;DHT22;2651;51.594;9.928;2023-01-09T01:20:00;8.70;22.30
5258;DHT22;2651;51.594;9.928;2023-01-09T01:21:09;8.70;21.50
5258;DHT22;2651;51.594;9.928;2023-01-09T01:22:11;8.70;42.70
5258;DHT22;2651;51.594;9.928;2023-01-09T01:23:13;8.70;44.50
5258;DHT22;2651;51.594;9.928;2023-01-09T01:24:15;8.70;89.40
5258;DHT22;2651;51.594;9.928;2023-01-09T01:25:20;8.70;99.90
5258;DHT22;2651;51.594;9.928;2023-01-09T01:26:22;8.60;99.90
5258;DHT22;2651;51.594;9.928;2023-01-09T01:27:23;8.60;99.90
5258;DHT22;2651;51.594;9.928;2023-01-09T01:28:25;8.60;99.90
5258;DHT22;2651;51.594;9.928;2023-01-09T01:29:27;8.60;99.90
5258;DHT22;2651;51.594;9.928;2023-01-09T01:30:28;8.60;99.90
5258;DHT22;2651;51.594;9.928;2023-01-09T01:31:31;8.50;99.90
5258;DHT22;2651;51.594;9.928;2023-01-09T01:32:33;8.50;99.90
5258;DHT22;2651;51.594;9.928;2023-01-09T01:33:35;8.50;99.90
5258;DHT22;2651;51.594;9.928;2023-01-09T01:34:36;8.50;99.90
5258;DHT22;2651;51.594;9.928;2023-01-09T01:35:38;8.60;99.90
5258;DHT22;2651;51.594;9.928;2023-01-09T01:36:40;8.60;99.90
5258;DHT22;2651;51.594;9.928;2023-01-09T01:37:41;8.60;99.90
5258;DHT22;2651;51.594;9.928;2023-01-09T01:38:43;8.60;99.90
5258;DHT22;2651;51.594;9.928;2023-01-09T01:39:45;8.50;99.90
5258;DHT22;2651;51.594;9.928;2023-01-09T01:40:52;8.60;99.90
5258;DHT22;2651;51.594;9.928;2023-01-09T01:41:53;8.60;99.90
5258;DHT22;2651;51.594;9.928;2023-01-09T01:42:56;8.60;99.90
5258;DHT22;2651;51.594;9.928;2023-01-09T01:44:04;8.60;99.90
5258;DHT22;2651;51.594;9.928;2023-01-09T01:45:13;8.70;99.90
5258;DHT22;2651;51.594;9.928;2023-01-09T01:46:18;8.60;99.90
5258;DHT22;2651;51.594;9.928;2023-01-09T01:47:22;8.60;99.90
5258;DHT22;2651;51.594;9.928;2023-01-09T01:48:29;8.60;99.90
5258;DHT22;2651;51.594;9.928;2023-01-09T01:49:31;8.60;99.90
5258;DHT22;2651;51.594;9.928;2023-01-09T01:50:49;8.60;99.90
5258;DHT22;2651;51.594;9.928;2023-01-09T01:51:52;8.70;99.90
5258;DHT22;2651;51.594;9.928;2023-01-09T01:53:11;8.60;99.90
5258;DHT22;2651;51.594;9.928;2023-01-09T01:54:19;8.60;99.90
5258;DHT22;2651;51.594;9.928;2023-01-09T01:55:22;8.50;99.90
5258;DHT22;2651;51.594;9.928;2023-01-09T01:56:27;8.50;99.90
5258;DHT22;2651;51.594;9.928;2023-01-09T01:57:31;8.50;99.90
5258;DHT22;2651;51.594;9.928;2023-01-09T01:58:40;8.40;99.90
5258;DHT22;2651;51.594;9.928;2023-01-09T01:59:48;8.40;99.90
5258;DHT22;2651;51.594;9.928;2023-01-09T02:00:51;8.40;99.90
5258;DHT22;2651;51.594;9.928;2023-01-09T02:01:58;8.40;99.90
5258;DHT22;2651;51.594;9.928;2023-01-09T02:03:01;8.30;99.90
5258;DHT22;2651;51.594;9.928;2023-01-09T02:04:03;8.40;99.90
5258;DHT22;2651;51.594;9.928;2023-01-09T02:05:05;8.40;99.90
5258;DHT22;2651;51.594;9.928;2023-01-09T02:06:08;8.40;99.90
5258;DHT22;2651;51.594;9.928;2023-01-09T02:07:10;8.30;99.90
5258;DHT22;2651;51.594;9.928;2023-01-09T02:08:12;8.30;99.90
5258;DHT22;2651;51.594;9.928;2023-01-09T02:09:14;8.30;99.90
5258;DHT22;2651;51.594;9.928;2023-01-09T02:10:18;8.30;99.90
5258;DHT22;2651;51.594;9.928;2023-01-09T02:11:23;8.30;99.90
5258;DHT22;2651;51.594;9.928;2023-01-09T02:12:26;8.30;99.90
5258;DHT22;2651;51.594;9.928;2023-01-09T02:13:29;8.30;99.90
5258;DHT22;2651;51.594;9.928;2023-01-09T02:14:32;8.30;99.90
5258;DHT22;2651;51.594;9.928;2023-01-09T02:16:09;8.20;99.90
5258;DHT22;2651;51.594;9.928;2023-01-09T02:17:28;8.30;99.90
5258;DHT22;2651;51.594;9.928;2023-01-09T02:20:20;8.20;99.90
5258;DHT22;2651;51.594;9.928;2023-01-09T02:24:33;8.20;99.90
5258;DHT22;2651;51.594;9.928;2023-01-09T02:26:28;8.20;99.90
5258;DHT22;2651;51.594;9.928;2023-01-09T02:27:58;8.20;99.90
5258;DHT22;2651;51.594;9.928;2023-01-09T02:29:44;8.20;99.90
5258;DHT22;2651;51.594;9.928;2023-01-09T02:32:43;8.20;99.90
5258;DHT22;2651;51.594;9.928;2023-01-09T02:34:07;8.20;99.90
5258;DHT22;2651;51.594;9.928;2023-01-09T02:35:30;8.10;99.90
5258;DHT22;2651;51.594;9.928;2023-01-09T02:37:07;8.10;99.90
5258;DHT22;2651;51.594;9.928;2023-01-09T02:40:59;8.10;99.90
5258;DHT22;2651;51.594;9.928;2023-01-09T02:42:09;8.20;99.90
5258;DHT22;2651;51.594;9.928;2023-01-09T02:43:14;8.10;99.90
5258;DHT22;2651;51.594;9.928;2023-01-09T02:44:19;8.10;99.90
5258;DHT22;2651;51.594;9.928;2023-01-09T02:45:21;8.10;99.90
5258;DHT22;2651;51.594;9.928;2023-01-09T02:46:23;8.10;99.90
5258;DHT22;2651;51.594;9.928;2023-01-09T02:48:30;8.10;99.90
5258;DHT22;2651;51.594;9.928;2023-01-09T02:49:34;8.10;99.90
5258;DHT22;2651;51.594;9.928;2023-01-09T02:53:31;8.10;99.90
5258;DHT22;2651;51.594;9.928;2023-01-09T02:59:12;8.00;99.90
5258;DHT22;2651;51.594;9.928;2023-01-09T03:00:56;8.10;99.90
5258;DHT22;2651;51.594;9.928;2023-01-09T03:05:43;8.00;99.90
5258;DHT22;2651;51.594;9.928;2023-01-09T03:06:57;8.00;99.90
5258;DHT22;2651;51.594;9.928;2023-01-09T03:08:07;8.00;99.90
5258;DHT22;2651;51.594;9.928;2023-01-09T03:09:19;8.00;99.90
5258;DHT22;2651;51.594;9.928;2023-01-09T03:11:39;8.00;99.90
5258;DHT22;2651;51.594;9.928;2023-01-09T03:12:43;8.00;99.90
5258;DHT22;2651;51.594;9.928;2023-01-09T03:13:55;7.90;99.90
5258;DHT22;2651;51.594;9.928;2023-01-09T03:15:02;8.00;99.90
5258;DHT22;2651;51.594;9.928;2023-01-09T03:16:07;7.90;99.90
5258;DHT22;2651;51.594;9.928;2023-01-09T03:17:12;7.90;99.90
5258;DHT22;2651;51.594;9.928;2023-01-09T03:18:17;7.90;99.90
5258;DHT22;2651;51.594;9.928;2023-01-09T03:19:22;7.90;99.90
5258;DHT22;2651;51.594;9.928;2023-01-09T03:20:25;7.90;99.90
5258;DHT22;2651;51.594;9.928;2023-01-09T03:21:29;7.90;99.90
5258;DHT22;2651;51.594;9.928;2023-01-09T03:22:31;7.90;99.90
5258;DHT22;2651;51.594;9.928;2023-01-09T03:24:02;7.90;99.90
5258;DHT22;2651;51.594;9.928;2023-01-09T03:25:04;7.90;99.90
5258;DHT22;2651;51.594;9.928;2023-01-09T03:26:10;8.00;99.90
5258;DHT22;2651;51.594;9.928;2023-01-09T03:27:11;7.90;99.90
5258;DHT22;2651;51.594;9.928;2023-01-09T03:28:27;7.90;99.90
5258;DHT22;2651;51.594;9.928;2023-01-09T03:29:29;7.90;99.90
5258;DHT22;2651;51.594;9.928;2023-01-09T03:30:32;7.90;99.90
5258;DHT22;2651;51.594;9.928;2023-01-09T03:31:34;7.90;99.90
5258;DHT22;2651;51.594;9.928;2023-01-09T03:32:36;7.90;99.90
5258;DHT22;2651;51.594;9.928;2023-01-09T03:33:38;7.90;99.90
5258;DHT22;2651;51.594;9.928;2023-01-09T03:34:39;7.90;99.90
5258;DHT22;2651;51.594;9.928;2023-01-09T03:35:41;7.90;99.90
5258;DHT22;2651;51.594;9.928;2023-01-09T03:36:42;8.00;99.90
5258;DHT22;2651;51.594;9.928;2023-01-09T03:37:45;8.00;99.90
5258;DHT22;2651;51.594;9.928;2023-01-09T03:38:47;8.00;99.90
5258;DHT22;2651;51.594;9.928;2023-01-09T03:39:48;8.00;99.90
5258;DHT22;2651;51.594;9.928;2023-01-09T03:40:50;8.00;99.90
5258;DHT22;2651;51.594;9.928;2023-01-09T03:41:52;8.00;99.90
5258;DHT22;2651;51.594;9.928;2023-01-09T03:42:53;7.90;99.90
5258;DHT22;2651;51.594;9.928;2023-01-09T03:43:55;7.90;99.90
5258;DHT22;2651;51.594;9.928;2023-01-09T03:44:56;7.90;99.90
5258;DHT22;2651;51.594;9.928;2023-01-09T03:45:58;7.90;99.90
5258;DHT22;2651;51.594;9.928;2023-01-09T03:47:00;8.00;99.90
5258;DHT22;2651;51.594;9.928;2023-01-09T03:48:02;8.00;99.90
5258;DHT22;2651;51.594;9.928;2023-01-09T03:49:03;8.00;99.90
5258;DHT22;2651;51.594;9.928;2023-01-09T03:50:05;8.00;99.90
5258;DHT22;2651;51.594;9.928;2023-01-09T03:51:07;7.90;99.90
5258;DHT22;2651;51.594;9.928;2023-01-09T03:52:09;7.90;99.90
5258;DHT22;2651;51.594;9.928;2023-01-09T03:53:12;8.00;99.90
5258;DHT22;2651;51.594;9.928;2023-01-09T03:54:13;8.00;99.90
5258;DHT22;2651;51.594;9.928;2023-01-09T03:55:15;8.00;99.90
5258;DHT22;2651;51.594;9.928;2023-01-09T03:56:17;8.00;99.90
5258;DHT22;2651;51.594;9.928;2023-01-09T03:57:18;8.00;99.90
5258;DHT22;2651;51.594;9.928;2023-01-09T03:58:21;8.00;99.90
5258;DHT22;2651;51.594;9.928;2023-01-09T03:59:22;8.00;99.90
5258;DHT22;2651;51.594;9.928;2023-01-09T04:00:26;8.00;99.90
5258;DHT22;2651;51.594;9.928;2023-01-09T04:01:27;8.00;99.90
5258;DHT22;2651;51.594;9.928;2023-01-09T04:02:29;8.00;99.90
5258;DHT22;2651;51.594;9.928;2023-01-09T04:03:31;7.90;99.90
5258;DHT22;2651;51.594;9.928;2023-01-09T04:04:32;7.90;99.90
5258;DHT22;2651;51.594;9.928;2023-01-09T04:05:34;7.90;99.90
5258;DHT22;2651;51.594;9.928;2023-01-09T04:06:36;7.90;99.90
5258;DHT22;2651;51.594;9.928;2023-01-09T04:07:38;8.00;99.90
5258;DHT22;2651;51.594;9.928;2023-01-09T04:08:39;7.90;99.90
5258;DHT22;2651;51.594;9.928;2023-01-09T04:09:41;7.90;99.90
5258;DHT22;2651;51.594;9.928;2023-01-09T04:10:44;7.90;99.90
5258;DHT22;2651;51.594;9.928;2023-01-09T04:11:46;7.90;99.90
5258;DHT22;2651;51.594;9.928;2023-01-09T04:12:47;7.90;99.90
5258;DHT22;2651;51.594;9.928;2023-01-09T04:13:49;7.90;99.90
5258;DHT22;2651;51.594;9.928;2023-01-09T04:14:50;7.90;99.90
5258;DHT22;2651;51.594;9.928;2023-01-09T04:15:52;7.90;99.90
5258;DHT22;2651;51.594;9.928;2023-01-09T04:16:54;7.90;99.90
5258;DHT22;2651;51.594;9.928;2023-01-09T04:17:55;7.90;99.90
5258;DHT22;2651;51.594;9.928;2023-01-09T04:18:57;7.90;99.90
5258;DHT22;2651;51.594;9.928;2023-01-09T04:19:59;7.90;99.90
5258;DHT22;2651;51.594;9.928;2023-01-09T04:21:00;7.90;99.90
5258;DHT22;2651;51.594;9.928;2023-01-09T04:22:02;7.90;99.90
5258;DHT22;2651;51.594;9.928;2023-01-09T04:23:04;7.90;99.90
5258;DHT22;2651;51.594;9.928;2023-01-09T04:24:06;7.90;99.90
5258;DHT22;2651;51.594;9.928;2023-01-09T04:25:08;7.90;99.90
5258;DHT22;2651;51.594;9.928;2023-01-09T04:26:09;7.90;99.90
5258;DHT22;2651;51.594;9.928;2023-01-09T04:27:11;8.00;99.90
5258;DHT22;2651;51.594;9.928;2023-01-09T04:28:13;8.00;99.90
5258;DHT22;2651;51.594;9.928;2023-01-09T04:29:15;8.00;99.90
5258;DHT22;2651;51.594;9.928;2023-01-09T04:30:16;8.00;99.90
5258;DHT22;2651;51.594;9.928;2023-01-09T04:31:18;8.00;99.90
5258;DHT22;2651;51.594;9.928;2023-01-09T04:32:20;8.00;99.90
5258;DHT22;2651;51.594;9.928;2023-01-09T04:33:21;8.00;99.90
5258;DHT22;2651;51.594;9.928;2023-01-09T04:34:23;8.00;99.90
5258;DHT22;2651;51.594;9.928;2023-01-09T04:35:26;8.00;99.90
5258;DHT22;2651;51.594;9.928;2023-01-09T04:36:27;8.00;99.90
5258;DHT22;2651;51.594;9.928;2023-01-09T04:37:29;8.00;99.90
5258;DHT22;2651;51.594;9.928;2023-01-09T04:38:31;8.10;99.90
5258;DHT22;2651;51.594;9.928;2023-01-09T04:39:32;8.10;99.90
5258;DHT22;2651;51.594;9.928;2023-01-09T04:40:34;8.00;99.90
5258;DHT22;2651;51.594;9.928;2023-01-09T04:41:35;8.10;99.90
5258;DHT22;2651;51.594;9.928;2023-01-09T04:42:49;8.10;99.90
5258;DHT22;2651;51.594;9.928;2023-01-09T04:43:50;8.00;99.90
5258;DHT22;2651;51.594;9.928;2023-01-09T04:44:52;8.10;99.90
5258;DHT22;2651;51.594;9.928;2023-01-09T04:45:54;8.10;99.90
5258;DHT22;2651;51.594;9.928;2023-01-09T04:46:56;8.10;99.90
5258;DHT22;2651;51.594;9.928;2023-01-09T04:47:59;8.00;99.90
5258;DHT22;2651;51.594;9.928;2023-01-09T04:49:01;8.00;99.90
5258;DHT22;2651;51.594;9.928;2023-01-09T04:50:03;8.00;99.90
5258;DHT22;2651;51.594;9.928;2023-01-09T04:51:04;8.00;99.90
5258;DHT22;2651;51.594;9.928;2023-01-09T04:52:06;8.00;99.90
5258;DHT22;2651;51.594;9.928;2023-01-09T04:53:08;8.00;99.90
5258;DHT22;2651;51.594;9.928;2023-01-09T04:54:09;8.00;99.90
5258;DHT22;2651;51.594;9.928;2023-01-09T04:55:11;8.00;99.90
5258;DHT22;2651;51.594;9.928;2023-01-09T04:56:12;8.00;99.90
5258;DHT22;2651;51.594;9.928;2023-01-09T04:57:14;8.00;99.90
5258;DHT22;2651;51.594;9.928;2023-01-09T04:58:16;8.00;99.90
5258;DHT22;2651;51.594;9.928;2023-01-09T04:59:17;8.00;99.90
5258;DHT22;2651;51.594;9.928;2023-01-09T05:00:19;8.00;99.90
5258;DHT22;2651;51.594;9.928;2023-01-09T05:01:21;8.00;99.90
5258;DHT22;2651;51.594;9.928;2023-01-09T05:02:23;8.00;99.90
5258;DHT22;2651;51.594;9.928;2023-01-09T05:03:24;8.00;99.90
5258;DHT22;2651;51.594;9.928;2023-01-09T05:04:26;7.90;99.90
5258;DHT22;2651;51.594;9.928;2023-01-09T05:05:28;7.90;99.90
5258;DHT22;2651;51.594;9.928;2023-01-09T05:06:29;7.90;99.90
5258;DHT22;2651;51.594;9.928;2023-01-09T05:07:32;8.00;99.90
5258;DHT22;2651;51.594;9.928;2023-01-09T05:08:34;8.00;99.90
5258;DHT22;2651;51.594;9.928;2023-01-09T05:09:36;8.00;99.90
5258;DHT22;2651;51.594;9.928;2023-01-09T05:10:37;8.00;99.90
5258;DHT22;2651;51.594;9.928;2023-01-09T05:11:39;8.00;99.90
5258;DHT22;2651;51.594;9.928;2023-01-09T05:12:40;8.00;99.90
5258;DHT22;2651;51.594;9.928;2023-01-09T05:13:42;8.00;99.90
5258;DHT22;2651;51.594;9.928;2023-01-09T05:14:44;8.00;99.90
5258;DHT22;2651;51.594;9.928;2023-01-09T05:15:45;8.00;99.90
5258;DHT22;2651;51.594;9.928;2023-01-09T05:16:47;8.00;99.90
5258;DHT22;2651;51.594;9.928;2023-01-09T05:17:49;8.00;99.90
5258;DHT22;2651;51.594;9.928;2023-01-09T05:18:50;8.00;99.90
5258;DHT22;2651;51.594;9.928;2023-01-09T05:19:56;8.10;99.90
5258;DHT22;2651;51.594;9.928;2023-01-09T05:20:58;8.10;99.90
5258;DHT22;2651;51.594;9.928;2023-01-09T05:22:00;8.10;99.90
5258;DHT22;2651;51.594;9.928;2023-01-09T05:23:02;8.10;99.90
5258;DHT22;2651;51.594;9.928;2023-01-09T05:24:04;8.10;99.90
5258;DHT22;2651;51.594;9.928;2023-01-09T05:25:06;8.10;99.90
5258;DHT22;2651;51.594;9.928;2023-01-09T05:26:07;8.10;99.90
5258;DHT22;2651;51.594;9.928;2023-01-09T05:27:09;8.00;99.90
5258;DHT22;2651;51.594;9.928;2023-01-09T05:28:11;8.00;99.90
5258;DHT22;2651;51.594;9.928;2023-01-09T05:29:12;8.10;99.90
5258;DHT22;2651;51.594;9.928;2023-01-09T05:30:14;8.10;99.90
5258;DHT22;2651;51.594;9.928;2023-01-09T05:31:19;8.10;99.90
5258;DHT22;2651;51.594;9.928;2023-01-09T05:32:21;8.10;99.90
5258;DHT22;2651;51.594;9.928;2023-01-09T05:33:22;8.10;99.90
5258;DHT22;2651;51.594;9.928;2023-01-09T05:34:24;8.10;99.90
5258;DHT22;2651;51.594;9.928;2023-01-09T05:35:26;8.10;69.70
5258;DHT22;2651;51.594;9.928;2023-01-09T05:36:28;8.10;45.30
5258;DHT22;2651;51.594;9.928;2023-01-09T05:37:30;8.10;13.50
5258;DHT22;2651;51.594;9.928;2023-01-09T05:38:31;8.10;49.10
5258;DHT22;2651;51.594;9.928;2023-01-09T05:39:33;8.10;99.90
5258;DHT22;2651;51.594;9.928;2023-01-09T05:40:35;8.10;92.50
5258;DHT22;2651;51.594;9.928;2023-01-09T05:41:41;8.10;87.10
5258;DHT22;2651;51.594;9.928;2023-01-09T05:42:43;8.10;68.00
5258;DHT22;2651;51.594;9.928;2023-01-09T05:43:45;8.10;1.00
5258;DHT22;2651;51.594;9.928;2023-01-09T05:44:46;8.10;1.00
5258;DHT22;2651;51.594;9.928;2023-01-09T05:45:48;8.10;1.00
5258;DHT22;2651;51.594;9.928;2023-01-09T05:46:50;8.10;1.00
5258;DHT22;2651;51.594;9.928;2023-01-09T05:47:52;8.10;1.00
5258;DHT22;2651;51.594;9.928;2023-01-09T05:48:53;8.10;1.00
5258;DHT22;2651;51.594;9.928;2023-01-09T05:49:55;8.10;1.00
5258;DHT22;2651;51.594;9.928;2023-01-09T05:50:56;8.10;1.00
5258;DHT22;2651;51.594;9.928;2023-01-09T05:51:58;8.00;1.00
5258;DHT22;2651;51.594;9.928;2023-01-09T05:53:00;8.00;1.00
5258;DHT22;2651;51.594;9.928;2023-01-09T05:54:01;8.00;1.00
5258;DHT22;2651;51.594;9.928;2023-01-09T05:55:05;8.00;1.00
5258;DHT22;2651;51.594;9.928;2023-01-09T05:56:07;8.00;1.00
5258;DHT22;2651;51.594;9.928;2023-01-09T05:57:11;8.00;5.80
5258;DHT22;2651;51.594;9.928;2023-01-09T05:58:13;7.90;1.00
5258;DHT22;2651;51.594;9.928;2023-01-09T05:59:15;7.90;1.00
5258;DHT22;2651;51.594;9.928;2023-01-09T06:00:17;7.90;1.00
5258;DHT22;2651;51.594;9.928;2023-01-09T06:01:19;7.90;1.00
5258;DHT22;2651;51.594;9.928;2023-01-09T06:02:23;7.90;1.00
5258;DHT22;2651;51.594;9.928;2023-01-09T06:03:25;7.90;1.00
5258;DHT22;2651;51.594;9.928;2023-01-09T06:04:27;7.90;1.00
5258;DHT22;2651;51.594;9.928;2023-01-09T06:05:30;7.90;1.00
5258;DHT22;2651;51.594;9.928;2023-01-09T06:06:31;7.90;1.00
5258;DHT22;2651;51.594;9.928;2023-01-09T06:07:33;7.90;1.00
5258;DHT22;2651;51.594;9.928;2023-01-09T06:08:39;7.90;1.00
5258;DHT22;2651;51.594;9.928;2023-01-09T06:09:41;7.90;1.00
5258;DHT22;2651;51.594;9.928;2023-01-09T06:10:42;7.90;1.00
5258;DHT22;2651;51.594;9.928;2023-01-09T06:11:45;7.90;1.00
5258;DHT22;2651;51.594;9.928;2023-01-09T06:12:48;7.90;1.00
5258;DHT22;2651;51.594;9.928;2023-01-09T06:13:50;7.90;1.00
5258;DHT22;2651;51.594;9.928;2023-01-09T06:14:52;7.90;1.00
5258;DHT22;2651;51.594;9.928;2023-01-09T06:15:54;7.90;1.00
5258;DHT22;2651;51.594;9.928;2023-01-09T06:16:55;7.90;1.00
5258;DHT22;2651;51.594;9.928;2023-01-09T06:17:57;7.90;1.00
5258;DHT22;2651;51.594;9.928;2023-01-09T06:18:58;7.90;1.00
5258;DHT22;2651;51.594;9.928;2023-01-09T06:20:00;7.90;1.00
5258;DHT22;2651;51.594;9.928;2023-01-09T06:21:02;7.90;1.00
5258;DHT22;2651;51.594;9.928;2023-01-09T06:22:04;7.90;1.00
5258;DHT22;2651;51.594;9.928;2023-01-09T06:23:05;7.90;1.00
5258;DHT22;2651;51.594;9.928;2023-01-09T06:24:07;7.90;1.00
5258;DHT22;2651;51.594;9.928;2023-01-09T06:25:09;7.90;1.00
5258;DHT22;2651;51.594;9.928;2023-01-09T06:26:11;7.90;1.00
5258;DHT22;2651;51.594;9.928;2023-01-09T06:27:12;7.90;1.00
5258;DHT22;2651;51.594;9.928;2023-01-09T06:28:14;7.90;1.00
5258;DHT22;2651;51.594;9.928;2023-01-09T06:29:16;7.80;1.00
5258;DHT22;2651;51.594;9.928;2023-01-09T06:30:18;7.80;1.00
5258;DHT22;2651;51.594;9.928;2023-01-09T06:31:24;7.80;1.00
5258;DHT22;2651;51.594;9.928;2023-01-09T06:32:25;7.80;1.00
5258;DHT22;2651;51.594;9.928;2023-01-09T06:33:27;7.80;1.00
5258;DHT22;2651;51.594;9.928;2023-01-09T06:34:29;7.80;1.00
5258;DHT22;2651;51.594;9.928;2023-01-09T06:35:30;7.70;1.00
5258;DHT22;2651;51.594;9.928;2023-01-09T06:36:32;7.70;1.00
5258;DHT22;2651;51.594;9.928;2023-01-09T06:37:34;7.70;1.00
5258;DHT22;2651;51.594;9.928;2023-01-09T06:38:35;7.70;1.00
5258;DHT22;2651;51.594;9.928;2023-01-09T06:39:37;7.80;1.00
5258;DHT22;2651;51.594;9.928;2023-01-09T06:40:38;7.70;1.00
5258;DHT22;2651;51.594;9.928;2023-01-09T06:41:40;7.70;1.00
5258;DHT22;2651;51.594;9.928;2023-01-09T06:42:43;7.60;1.00
5258;DHT22;2651;51.594;9.928;2023-01-09T06:43:45;7.60;1.00
5258;DHT22;2651;51.594;9.928;2023-01-09T06:44:47;7.60;1.00
5258;DHT22;2651;51.594;9.928;2023-01-09T06:45:48;7.50;1.00
5258;DHT22;2651;51.594;9.928;2023-01-09T06:46:50;7.50;2.60
5258;DHT22;2651;51.594;9.928;2023-01-09T06:47:51;7.50;1.40
5258;DHT22;2651;51.594;9.928;2023-01-09T06:48:53;7.50;1.00
5258;DHT22;2651;51.594;9.928;2023-01-09T06:49:55;7.50;1.00
5258;DHT22;2651;51.594;9.928;2023-01-09T06:50:58;7.50;1.00
5258;DHT22;2651;51.594;9.928;2023-01-09T06:52:00;7.50;12.10
5258;DHT22;2651;51.594;9.928;2023-01-09T06:53:06;7.50;14.80
5258;DHT22;2651;51.594;9.928;2023-01-09T06:54:07;7.40;1.00
5258;DHT22;2651;51.594;9.928;2023-01-09T06:55:09;7.40;1.00
5258;DHT22;2651;51.594;9.928;2023-01-09T06:56:11;7.40;29.80
5258;DHT22;2651;51.594;9.928;2023-01-09T06:57:12;7.40;16.50
5258;DHT22;2651;51.594;9.928;2023-01-09T06:58:16;7.40;11.30
5258;DHT22;2651;51.594;9.928;2023-01-09T06:59:18;7.40;22.50
5258;DHT22;2651;51.594;9.928;2023-01-09T07:00:20;7.40;29.90
5258;DHT22;2651;51.594;9.928;2023-01-09T07:01:22;7.30;41.30
5258;DHT22;2651;51.594;9.928;2023-01-09T07:02:24;7.30;56.00
5258;DHT22;2651;51.594;9.928;2023-01-09T07:03:26;7.40;93.40
5258;DHT22;2651;51.594;9.928;2023-01-09T07:04:27;7.40;96.50
5258;DHT22;2651;51.594;9.928;2023-01-09T07:05:30;7.40;99.90
5258;DHT22;2651;51.594;9.928;2023-01-09T07:06:33;7.40;99.90
5258;DHT22;2651;51.594;9.928;2023-01-09T07:07:35;7.40;99.90
5258;DHT22;2651;51.594;9.928;2023-01-09T07:08:36;7.50;98.40
5258;DHT22;2651;51.594;9.928;2023-01-09T07:09:38;7.40;93.30
5258;DHT22;2651;51.594;9.928;2023-01-09T07:10:41;7.40;91.90
5258;DHT22;2651;51.594;9.928;2023-01-09T07:11:43;7.40;91.40
5258;DHT22;2651;51.594;9.928;2023-01-09T07:12:45;7.40;67.70
5258;DHT22;2651;51.594;9.928;2023-01-09T07:13:46;7.40;90.40
5258;DHT22;2651;51.594;9.928;2023-01-09T07:14:48;7.40;99.90
5258;DHT22;2651;51.594;9.928;2023-01-09T07:15:49;7.40;78.60
5258;DHT22;2651;51.594;9.928;2023-01-09T07:16:53;7.50;84.50
5258;DHT22;2651;51.594;9.928;2023-01-09T07:17:55;7.50;72.00
5258;DHT22;2651;51.594;9.928;2023-01-09T07:18:57;7.50;70.00
5258;DHT22;2651;51.594;9.928;2023-01-09T07:19:59;7.50;68.40
5258;DHT22;2651;51.594;9.928;2023-01-09T07:21:01;7.50;63.60
5258;DHT22;2651;51.594;9.928;2023-01-09T07:22:02;7.50;62.80
5258;DHT22;2651;51.594;9.928;2023-01-09T07:23:04;7.50;54.60
5258;DHT22;2651;51.594;9.928;2023-01-09T07:24:05;7.50;88.50
5258;DHT22;2651;51.594;9.928;2023-01-09T07:25:08;7.50;99.90
5258;DHT22;2651;51.594;9.928;2023-01-09T07:26:09;7.50;92.70
5258;DHT22;2651;51.594;9.928;2023-01-09T07:27:11;7.50;99.10